sensor_id;sensor_type;location;lat;lon;timestamp;temperature;humidity
50570;DHT22;36525;49.398;7.614;2022-10-31T00:01:25;11.10;99.90
50570;DHT22;36525;49.398;7.614;2022-10-31T00:03:54;11.10;99.90
50570;DHT22;36525;49.398;7.614;2022-10-31T00:06:22;11.00;99.90
50570;DHT22;36525;49.398;7.614;2022-10-31T00:08:57;11.00;99.90
50570;DHT22;36525;49.398;7.614;2022-10-31T00:11:25;11.00;99.90
50570;DHT22;36525;49.398;7.614;2022-10-31T00:13:53;10.90;99.90
50570;DHT22;36525;49.398;7.614;2022-10-31T00:16:24;10.90;99.90
50570;DHT22;36525;49.398;7.614;2022-10-31T00:18:53;10.90;99.90
50570;DHT22;36525;49.398;7.614;2022-10-31T00:21:23;10.90;99.90
50570;DHT22;36525;49.398;7.614;2022-10-31T00:23:51;10.90;99.90
50570;DHT22;36525;49.398;7.614;2022-10-31T00:26:18;11.00;99.90
50570;DHT22;36525;49.398;7.614;2022-10-31T00:28:46;11.00;99.90
50570;DHT22;36525;49.398;7.614;2022-10-31T00:31:13;11.00;99.90
50570;DHT22;36525;49.398;7.614;2022-10-31T00:33:41;11.10;99.90
50570;DHT22;36525;49.398;7.614;2022-10-31T00:36:15;11.10;99.90
50570;DHT22;36525;49.398;7.614;2022-10-31T00:38:44;11.10;99.90
50570;DHT22;36525;49.398;7.614;2022-10-31T00:41:13;11.00;99.90
50570;DHT22;36525;49.398;7.614;2022-10-31T00:43:41;11.00;99.90
50570;DHT22;36525;49.398;7.614;2022-10-31T00:46:10;10.90;99.90
50570;DHT22;36525;49.398;7.614;2022-10-31T00:48:38;10.90;99.90
50570;DHT22;36525;49.398;7.614;2022-10-31T00:51:05;10.90;99.90
50570;DHT22;36525;49.398;7.614;2022-10-31T00:53:32;10.90;99.90
50570;DHT22;36525;49.398;7.614;2022-10-31T00:55:59;11.00;99.90
50570;DHT22;36525;49.398;7.614;2022-10-31T00:58:29;11.00;99.90
50570;DHT22;36525;49.398;7.614;2022-10-31T01:00:56;11.10;99.90
50570;DHT22;36525;49.398;7.614;2022-10-31T01:03:28;11.10;99.90
50570;DHT22;36525;49.398;7.614;2022-10-31T01:06:02;11.00;99.90
50570;DHT22;36525;49.398;7.614;2022-10-31T01:08:35;11.10;99.90
50570;DHT22;36525;49.398;7.614;2022-10-31T01:11:16;11.10;99.90
50570;DHT22;36525;49.398;7.614;2022-10-31T01:13:45;11.00;99.90
50570;DHT22;36525;49.398;7.614;2022-10-31T01:16:18;11.00;99.90
50570;DHT22;36525;49.398;7.614;2022-10-31T01:18:46;10.90;99.90
50570;DHT22;36525;49.398;7.614;2022-10-31T01:21:16;10.90;99.90
50570;DHT22;36525;49.398;7.614;2022-10-31T01:23:46;10.90;99.90
50570;DHT22;36525;49.398;7.614;2022-10-31T01:26:19;10.90;99.90
50570;DHT22;36525;49.398;7.614;2022-10-31T01:28:49;10.90;99.90
50570;DHT22;36525;49.398;7.614;2022-10-31T01:31:18;10.90;99.90
50570;DHT22;36525;49.398;7.614;2022-10-31T01:33:47;11.00;99.90
50570;DHT22;36525;49.398;7.614;2022-10-31T01:36:23;11.10;99.90
50570;DHT22;36525;49.398;7.614;2022-10-31T01:38:52;11.20;99.90
50570;DHT22;36525;49.398;7.614;2022-10-31T01:41:22;11.10;99.90
50570;DHT22;36525;49.398;7.614;2022-10-31T01:46:28;11.10;99.90
50570;DHT22;36525;49.398;7.614;2022-10-31T01:49:04;11.20;99.90
50570;DHT22;36525;49.398;7.614;2022-10-31T01:51:35;11.20;99.90
50570;DHT22;36525;49.398;7.614;2022-10-31T01:54:07;11.20;99.90
50570;DHT22;36525;49.398;7.614;2022-10-31T01:56:37;11.10;99.90
50570;DHT22;36525;49.398;7.614;2022-10-31T01:59:08;11.20;99.90
50570;DHT22;36525;49.398;7.614;2022-10-31T02:01:37;11.20;99.90
50570;DHT22;36525;49.398;7.614;2022-10-31T02:04:05;11.20;99.90
50570;DHT22;36525;49.398;7.614;2022-10-31T02:07:42;11.20;99.90
50570;DHT22;36525;49.398;7.614;2022-10-31T02:09:40;11.20;99.90
50570;DHT22;36525;49.398;7.614;2022-10-31T02:12:09;11.20;99.90
50570;DHT22;36525;49.398;7.614;2022-10-31T02:14:37;11.10;99.90
50570;DHT22;36525;49.398;7.614;2022-10-31T02:17:05;11.00;99.90
50570;DHT22;36525;49.398;7.614;2022-10-31T02:31:43;10.70;99.90
50570;DHT22;36525;49.398;7.614;2022-10-31T02:37:38;10.60;99.90
50570;DHT22;36525;49.398;7.614;2022-10-31T02:40:38;10.60;99.90
50570;DHT22;36525;49.398;7.614;2022-10-31T02:43:17;10.70;99.90
50570;DHT22;36525;49.398;7.614;2022-10-31T02:46:14;10.80;99.90
50570;DHT22;36525;49.398;7.614;2022-10-31T02:48:57;10.80;99.90
50570;DHT22;36525;49.398;7.614;2022-10-31T02:51:30;10.70;99.90
50570;DHT22;36525;49.398;7.614;2022-10-31T02:53:57;10.80;99.90
50570;DHT22;36525;49.398;7.614;2022-10-31T02:56:24;10.80;99.90
50570;DHT22;36525;49.398;7.614;2022-10-31T02:58:57;10.90;99.90
50570;DHT22;36525;49.398;7.614;2022-10-31T03:07:39;11.00;99.90
50570;DHT22;36525;49.398;7.614;2022-10-31T03:13:57;11.00;99.90
50570;DHT22;36525;49.398;7.614;2022-10-31T03:19:33;11.00;99.90
50570;DHT22;36525;49.398;7.614;2022-10-31T03:22:16;11.00;99.90
50570;DHT22;36525;49.398;7.614;2022-10-31T03:24:45;11.00;99.90
50570;DHT22;36525;49.398;7.614;2022-10-31T03:27:20;11.00;99.90
50570;DHT22;36525;49.398;7.614;2022-10-31T03:29:50;11.00;99.90
50570;DHT22;36525;49.398;7.614;2022-10-31T03:32:23;10.90;99.90
50570;DHT22;36525;49.398;7.614;2022-10-31T03:34:56;10.90;99.90
50570;DHT22;36525;49.398;7.614;2022-10-31T03:37:27;10.80;99.90
50570;DHT22;36525;49.398;7.614;2022-10-31T03:39:55;10.80;99.90
50570;DHT22;36525;49.398;7.614;2022-10-31T03:42:30;10.70;99.90
50570;DHT22;36525;49.398;7.614;2022-10-31T03:45:02;10.70;99.90
50570;DHT22;36525;49.398;7.614;2022-10-31T03:47:34;10.70;99.90
50570;DHT22;36525;49.398;7.614;2022-10-31T03:50:07;10.60;99.90
50570;DHT22;36525;49.398;7.614;2022-10-31T03:55:36;10.50;99.90
50570;DHT22;36525;49.398;7.614;2022-10-31T03:58:10;10.50;99.90
50570;DHT22;36525;49.398;7.614;2022-10-31T04:00:51;10.50;99.90
50570;DHT22;36525;49.398;7.614;2022-10-31T04:03:25;10.40;99.90
50570;DHT22;36525;49.398;7.614;2022-10-31T04:05:56;10.30;99.90
50570;DHT22;36525;49.398;7.614;2022-10-31T04:08:28;10.30;99.90
50570;DHT22;36525;49.398;7.614;2022-10-31T04:10:59;10.30;99.90
50570;DHT22;36525;49.398;7.614;2022-10-31T04:13:29;10.30;99.90
50570;DHT22;36525;49.398;7.614;2022-10-31T04:15:58;10.40;99.90
50570;DHT22;36525;49.398;7.614;2022-10-31T04:18:26;10.40;99.90
50570;DHT22;36525;49.398;7.614;2022-10-31T04:21:04;10.40;99.90
50570;DHT22;36525;49.398;7.614;2022-10-31T04:23:34;10.40;99.90
50570;DHT22;36525;49.398;7.614;2022-10-31T04:26:02;10.40;99.90
50570;DHT22;36525;49.398;7.614;2022-10-31T04:28:29;10.30;99.90
50570;DHT22;36525;49.398;7.614;2022-10-31T04:30:56;10.10;99.90
50570;DHT22;36525;49.398;7.614;2022-10-31T04:33:23;10.10;99.90
50570;DHT22;36525;49.398;7.614;2022-10-31T04:35:50;10.10;99.90
50570;DHT22;36525;49.398;7.614;2022-10-31T04:38:17;10.20;99.90
50570;DHT22;36525;49.398;7.614;2022-10-31T04:40:45;10.10;99.90
50570;DHT22;36525;49.398;7.614;2022-10-31T04:43:12;10.20;99.90
50570;DHT22;36525;49.398;7.614;2022-10-31T04:45:39;10.20;99.90
50570;DHT22;36525;49.398;7.614;2022-10-31T04:48:06;10.20;99.90
50570;DHT22;36525;49.398;7.614;2022-10-31T04:50:33;10.10;99.90
50570;DHT22;36525;49.398;7.614;2022-10-31T04:52:59;10.10;99.90
50570;DHT22;36525;49.398;7.614;2022-10-31T04:55:26;10.10;99.90
50570;DHT22;36525;49.398;7.614;2022-10-31T04:57:53;10.10;99.90
50570;DHT22;36525;49.398;7.614;2022-10-31T05:00:22;10.10;99.90
50570;DHT22;36525;49.398;7.614;2022-10-31T05:02:51;10.10;99.90
50570;DHT22;36525;49.398;7.614;2022-10-31T05:05:24;10.10;99.90
50570;DHT22;36525;49.398;7.614;2022-10-31T05:07:53;10.00;99.90
50570;DHT22;36525;49.398;7.614;2022-10-31T05:10:26;10.00;99.90
50570;DHT22;36525;49.398;7.614;2022-10-31T05:12:57;10.00;99.90
50570;DHT22;36525;49.398;7.614;2022-10-31T05:15:26;10.00;99.90
50570;DHT22;36525;49.398;7.614;2022-10-31T05:17:54;10.00;99.90
50570;DHT22;36525;49.398;7.614;2022-10-31T05:20:25;10.00;99.90
50570;DHT22;36525;49.398;7.614;2022-10-31T05:22:55;9.90;99.90
50570;DHT22;36525;49.398;7.614;2022-10-31T05:25:25;10.00;99.90
50570;DHT22;36525;49.398;7.614;2022-10-31T05:27:54;10.00;99.90
50570;DHT22;36525;49.398;7.614;2022-10-31T05:30:28;10.00;99.90
50570;DHT22;36525;49.398;7.614;2022-10-31T05:32:57;10.00;99.90
50570;DHT22;36525;49.398;7.614;2022-10-31T05:35:30;9.90;99.90
50570;DHT22;36525;49.398;7.614;2022-10-31T05:37:58;9.90;99.90
50570;DHT22;36525;49.398;7.614;2022-10-31T05:40:27;9.90;99.90
50570;DHT22;36525;49.398;7.614;2022-10-31T05:42:57;9.80;99.90
50570;DHT22;36525;49.398;7.614;2022-10-31T05:45:27;9.80;99.90
50570;DHT22;36525;49.398;7.614;2022-10-31T05:47:56;9.80;99.90
50570;DHT22;36525;49.398;7.614;2022-10-31T05:50:27;9.80;99.90
50570;DHT22;36525;49.398;7.614;2022-10-31T05:53:01;9.80;99.90
50570;DHT22;36525;49.398;7.614;2022-10-31T05:55:31;9.80;99.90
50570;DHT22;36525;49.398;7.614;2022-10-31T05:57:58;9.80;99.90
50570;DHT22;36525;49.398;7.614;2022-10-31T06:00:26;9.70;99.90
50570;DHT22;36525;49.398;7.614;2022-10-31T06:03:02;9.60;99.90
50570;DHT22;36525;49.398;7.614;2022-10-31T06:05:30;9.60;99.90
50570;DHT22;36525;49.398;7.614;2022-10-31T06:07:58;9.60;99.90
50570;DHT22;36525;49.398;7.614;2022-10-31T06:10:27;9.60;99.90
50570;DHT22;36525;49.398;7.614;2022-10-31T06:12:54;9.60;99.90
50570;DHT22;36525;49.398;7.614;2022-10-31T06:15:21;9.60;99.90
50570;DHT22;36525;49.398;7.614;2022-10-31T06:18:01;9.60;99.90
50570;DHT22;36525;49.398;7.614;2022-10-31T06:20:30;9.60;99.90
50570;DHT22;36525;49.398;7.614;2022-10-31T06:22:57;9.60;99.90
50570;DHT22;36525;49.398;7.614;2022-10-31T06:25:25;9.60;99.90
50570;DHT22;36525;49.398;7.614;2022-10-31T06:27:52;9.60;99.90
50570;DHT22;36525;49.398;7.614;2022-10-31T06:30:20;9.60;99.90
50570;DHT22;36525;49.398;7.614;2022-10-31T06:32:47;9.60;99.90
50570;DHT22;36525;49.398;7.614;2022-10-31T06:35:16;9.60;99.90
50570;DHT22;36525;49.398;7.614;2022-10-31T06:37:50;9.60;99.90
50570;DHT22;36525;49.398;7.614;2022-10-31T06:40:20;9.70;99.90
50570;DHT22;36525;49.398;7.614;2022-10-31T06:42:55;9.70;99.90
50570;DHT22;36525;49.398;7.614;2022-10-31T06:45:22;9.70;99.90
50570;DHT22;36525;49.398;7.614;2022-10-31T06:47:54;9.70;99.90
50570;DHT22;36525;49.398;7.614;2022-10-31T06:50:41;9.80;99.90
50570;DHT22;36525;49.398;7.614;2022-10-31T06:53:10;9.80;99.90
50570;DHT22;36525;49.398;7.614;2022-10-31T06:55:37;9.90;99.90
50570;DHT22;36525;49.398;7.614;2022-10-31T06:58:04;10.00;99.90
50570;DHT22;36525;49.398;7.614;2022-10-31T07:00:32;10.10;99.90
50570;DHT22;36525;49.398;7.614;2022-10-31T07:03:02;10.20;99.90
50570;DHT22;36525;49.398;7.614;2022-10-31T07:05:30;10.10;99.90
50570;DHT22;36525;49.398;7.614;2022-10-31T07:07:59;10.20;99.90
50570;DHT22;36525;49.398;7.614;2022-10-31T07:10:31;10.20;99.90
50570;DHT22;36525;49.398;7.614;2022-10-31T07:13:09;10.40;99.90
50570;DHT22;36525;49.398;7.614;2022-10-31T07:15:40;10.50;99.90
50570;DHT22;36525;49.398;7.614;2022-10-31T07:18:09;10.60;99.90
50570;DHT22;36525;49.398;7.614;2022-10-31T07:20:37;10.80;99.90
50570;DHT22;36525;49.398;7.614;2022-10-31T07:23:04;10.90;99.90
50570;DHT22;36525;49.398;7.614;2022-10-31T07:25:32;11.00;99.90
50570;DHT22;36525;49.398;7.614;2022-10-31T07:27:59;11.10;99.90
50570;DHT22;36525;49.398;7.614;2022-10-31T07:30:26;11.20;99.90
50570;DHT22;36525;49.398;7.614;2022-10-31T07:32:54;11.40;99.90
50570;DHT22;36525;49.398;7.614;2022-10-31T07:35:27;11.40;99.90
50570;DHT22;36525;49.398;7.614;2022-10-31T07:37:55;11.40;99.90
50570;DHT22;36525;49.398;7.614;2022-10-31T07:40:23;11.50;99.90
50570;DHT22;36525;49.398;7.614;2022-10-31T07:42:52;11.60;99.90
50570;DHT22;36525;49.398;7.614;2022-10-31T07:45:20;11.70;99.90
50570;DHT22;36525;49.398;7.614;2022-10-31T07:47:52;11.80;99.90
50570;DHT22;36525;49.398;7.614;2022-10-31T07:50:21;11.90;99.90
50570;DHT22;36525;49.398;7.614;2022-10-31T07:53:10;12.00;99.90
50570;DHT22;36525;49.398;7.614;2022-10-31T07:55:38;12.00;99.90
50570;DHT22;36525;49.398;7.614;2022-10-31T07:58:13;12.10;99.90
50570;DHT22;36525;49.398;7.614;2022-10-31T08:00:43;12.20;99.90
50570;DHT22;36525;49.398;7.614;2022-10-31T08:05:41;12.50;99.90
50570;DHT22;36525;49.398;7.614;2022-10-31T08:08:09;12.70;99.90
50570;DHT22;36525;49.398;7.614;2022-10-31T08:10:36;12.80;99.90
50570;DHT22;36525;49.398;7.614;2022-10-31T08:13:05;12.80;99.90
50570;DHT22;36525;49.398;7.614;2022-10-31T08:15:34;12.80;99.90
50570;DHT22;36525;49.398;7.614;2022-10-31T08:18:05;12.90;99.90
50570;DHT22;36525;49.398;7.614;2022-10-31T08:20:35;13.00;99.90
50570;DHT22;36525;49.398;7.614;2022-10-31T08:23:04;13.20;99.90
50570;DHT22;36525;49.398;7.614;2022-10-31T08:25:33;13.50;99.90
50570;DHT22;36525;49.398;7.614;2022-10-31T08:28:05;13.60;99.90
50570;DHT22;36525;49.398;7.614;2022-10-31T08:30:35;13.70;99.90
50570;DHT22;36525;49.398;7.614;2022-10-31T08:33:10;13.90;99.90
50570;DHT22;36525;49.398;7.614;2022-10-31T08:35:38;14.00;99.90
50570;DHT22;36525;49.398;7.614;2022-10-31T08:38:05;14.10;99.90
50570;DHT22;36525;49.398;7.614;2022-10-31T08:40:34;14.30;99.90
50570;DHT22;36525;49.398;7.614;2022-10-31T08:43:13;14.50;99.90
50570;DHT22;36525;49.398;7.614;2022-10-31T08:45:42;14.70;99.90
50570;DHT22;36525;49.398;7.614;2022-10-31T08:48:12;14.80;99.90
50570;DHT22;36525;49.398;7.614;2022-10-31T08:50:41;14.90;99.90
50570;DHT22;36525;49.398;7.614;2022-10-31T08:53:19;15.10;99.90
50570;DHT22;36525;49.398;7.614;2022-10-31T08:55:46;15.10;99.90
50570;DHT22;36525;49.398;7.614;2022-10-31T08:58:16;15.10;99.90
50570;DHT22;36525;49.398;7.614;2022-10-31T09:00:46;15.00;99.90
50570;DHT22;36525;49.398;7.614;2022-10-31T09:03:20;15.10;99.90
50570;DHT22;36525;49.398;7.614;2022-10-31T09:05:48;15.10;99.90
50570;DHT22;36525;49.398;7.614;2022-10-31T09:08:16;15.10;99.90
50570;DHT22;36525;49.398;7.614;2022-10-31T09:10:44;15.20;99.90
50570;DHT22;36525;49.398;7.614;2022-10-31T09:13:29;15.50;99.90
50570;DHT22;36525;49.398;7.614;2022-10-31T09:15:57;15.70;99.90
50570;DHT22;36525;49.398;7.614;2022-10-31T09:18:26;15.80;99.90
50570;DHT22;36525;49.398;7.614;2022-10-31T09:20:56;15.90;99.90
50570;DHT22;36525;49.398;7.614;2022-10-31T09:23:24;15.90;99.90
50570;DHT22;36525;49.398;7.614;2022-10-31T09:25:52;15.90;99.90
50570;DHT22;36525;49.398;7.614;2022-10-31T09:28:22;16.00;99.90
50570;DHT22;36525;49.398;7.614;2022-10-31T09:30:52;16.00;99.90
50570;DHT22;36525;49.398;7.614;2022-10-31T09:33:20;16.10;99.90
50570;DHT22;36525;49.398;7.614;2022-10-31T09:35:47;16.10;99.90
50570;DHT22;36525;49.398;7.614;2022-10-31T09:38:19;16.40;99.90
50570;DHT22;36525;49.398;7.614;2022-10-31T09:41:05;16.50;99.90
50570;DHT22;36525;49.398;7.614;2022-10-31T09:43:45;16.70;99.90
50570;DHT22;36525;49.398;7.614;2022-10-31T09:47:05;16.90;99.90
50570;DHT22;36525;49.398;7.614;2022-10-31T09:49:59;17.10;99.90
50570;DHT22;36525;49.398;7.614;2022-10-31T09:52:36;17.30;99.90
50570;DHT22;36525;49.398;7.614;2022-10-31T09:55:31;17.50;99.90
50570;DHT22;36525;49.398;7.614;2022-10-31T09:58:00;17.80;99.90
50570;DHT22;36525;49.398;7.614;2022-10-31T10:00:27;18.00;99.90
50570;DHT22;36525;49.398;7.614;2022-10-31T10:03:29;18.20;99.90
50570;DHT22;36525;49.398;7.614;2022-10-31T10:06:11;18.40;99.90
50570;DHT22;36525;49.398;7.614;2022-10-31T10:08:41;18.60;99.90
50570;DHT22;36525;49.398;7.614;2022-10-31T10:17:21;18.60;99.90
50570;DHT22;36525;49.398;7.614;2022-10-31T10:22:46;18.30;99.90
50570;DHT22;36525;49.398;7.614;2022-10-31T10:28:25;18.50;99.90
50570;DHT22;36525;49.398;7.614;2022-10-31T10:31:08;18.70;99.90
50570;DHT22;36525;49.398;7.614;2022-10-31T10:34:11;18.80;99.90
50570;DHT22;36525;49.398;7.614;2022-10-31T10:37:31;18.90;99.90
50570;DHT22;36525;49.398;7.614;2022-10-31T10:40:18;19.00;99.90
50570;DHT22;36525;49.398;7.614;2022-10-31T10:52:15;19.40;99.90
50570;DHT22;36525;49.398;7.614;2022-10-31T10:55:41;19.30;99.90
50570;DHT22;36525;49.398;7.614;2022-10-31T10:58:09;19.40;99.90
50570;DHT22;36525;49.398;7.614;2022-10-31T11:00:40;19.40;99.90
50570;DHT22;36525;49.398;7.614;2022-10-31T11:03:10;19.50;99.90
50570;DHT22;36525;49.398;7.614;2022-10-31T11:05:44;19.50;99.90
50570;DHT22;36525;49.398;7.614;2022-10-31T11:08:31;19.50;99.90
50570;DHT22;36525;49.398;7.614;2022-10-31T11:11:08;19.60;99.90
50570;DHT22;36525;49.398;7.614;2022-10-31T11:13:48;19.60;99.90
50570;DHT22;36525;49.398;7.614;2022-10-31T11:16:32;19.60;99.90
50570;DHT22;36525;49.398;7.614;2022-10-31T11:19:19;19.70;99.90
50570;DHT22;36525;49.398;7.614;2022-10-31T11:21:48;19.80;99.90
50570;DHT22;36525;49.398;7.614;2022-10-31T11:24:21;19.70;99.90
50570;DHT22;36525;49.398;7.614;2022-10-31T11:26:50;19.70;99.90
50570;DHT22;36525;49.398;7.614;2022-10-31T11:29:22;19.70;99.90
50570;DHT22;36525;49.398;7.614;2022-10-31T11:31:55;19.70;99.90
50570;DHT22;36525;49.398;7.614;2022-10-31T11:34:32;19.80;99.90
50570;DHT22;36525;49.398;7.614;2022-10-31T11:37:22;19.80;99.90
50570;DHT22;36525;49.398;7.614;2022-10-31T11:39:54;19.80;99.90
50570;DHT22;36525;49.398;7.614;2022-10-31T11:42:42;19.80;99.90
50570;DHT22;36525;49.398;7.614;2022-10-31T11:45:43;19.70;99.90
50570;DHT22;36525;49.398;7.614;2022-10-31T11:48:22;19.60;99.90
50570;DHT22;36525;49.398;7.614;2022-10-31T11:50:55;19.40;99.90
50570;DHT22;36525;49.398;7.614;2022-10-31T11:53:32;19.20;99.90
50570;DHT22;36525;49.398;7.614;2022-10-31T11:56:04;19.00;99.90
50570;DHT22;36525;49.398;7.614;2022-10-31T11:58:31;18.80;99.90
50570;DHT22;36525;49.398;7.614;2022-10-31T12:00:58;18.80;99.90
50570;DHT22;36525;49.398;7.614;2022-10-31T12:03:51;18.90;99.90
50570;DHT22;36525;49.398;7.614;2022-10-31T12:06:30;19.00;99.90
50570;DHT22;36525;49.398;7.614;2022-10-31T12:09:00;19.00;99.90
50570;DHT22;36525;49.398;7.614;2022-10-31T12:17:16;19.20;99.90
50570;DHT22;36525;49.398;7.614;2022-10-31T12:23:03;19.30;99.90
50570;DHT22;36525;49.398;7.614;2022-10-31T12:25:48;19.30;99.90
50570;DHT22;36525;49.398;7.614;2022-10-31T12:32:11;19.40;99.90
50570;DHT22;36525;49.398;7.614;2022-10-31T12:46:02;19.70;99.90
50570;DHT22;36525;49.398;7.614;2022-10-31T12:48:45;19.60;99.90
50570;DHT22;36525;49.398;7.614;2022-10-31T12:51:40;19.80;99.90
50570;DHT22;36525;49.398;7.614;2022-10-31T12:58:43;20.10;99.90
50570;DHT22;36525;49.398;7.614;2022-10-31T13:01:17;20.10;99.90
50570;DHT22;36525;49.398;7.614;2022-10-31T13:06:42;20.20;99.90
50570;DHT22;36525;49.398;7.614;2022-10-31T13:09:25;20.30;99.90
50570;DHT22;36525;49.398;7.614;2022-10-31T13:12:07;21.00;99.90
50570;DHT22;36525;49.398;7.614;2022-10-31T13:14:40;22.70;99.90
50570;DHT22;36525;49.398;7.614;2022-10-31T13:17:40;25.30;99.90
50570;DHT22;36525;49.398;7.614;2022-10-31T13:23:10;27.40;99.90
50570;DHT22;36525;49.398;7.614;2022-10-31T13:26:38;27.10;99.90
50570;DHT22;36525;49.398;7.614;2022-10-31T13:29:29;28.30;99.90
50570;DHT22;36525;49.398;7.614;2022-10-31T13:32:03;29.00;99.90
50570;DHT22;36525;49.398;7.614;2022-10-31T13:34:37;28.20;99.90
50570;DHT22;36525;49.398;7.614;2022-10-31T13:37:35;27.40;99.90
50570;DHT22;36525;49.398;7.614;2022-10-31T13:40:42;26.50;99.90
50570;DHT22;36525;49.398;7.614;2022-10-31T13:48:50;24.40;99.90
50570;DHT22;36525;49.398;7.614;2022-10-31T13:51:32;23.90;99.90
50570;DHT22;36525;49.398;7.614;2022-10-31T13:54:20;23.40;99.90
50570;DHT22;36525;49.398;7.614;2022-10-31T13:56:52;22.80;99.90
50570;DHT22;36525;49.398;7.614;2022-10-31T13:59:25;22.30;99.90
50570;DHT22;36525;49.398;7.614;2022-10-31T14:01:58;21.90;99.90
50570;DHT22;36525;49.398;7.614;2022-10-31T14:04:38;21.50;99.90
50570;DHT22;36525;49.398;7.614;2022-10-31T14:07:13;21.10;99.90
50570;DHT22;36525;49.398;7.614;2022-10-31T14:09:54;20.80;99.90
50570;DHT22;36525;49.398;7.614;2022-10-31T14:12:30;20.50;99.90
50570;DHT22;36525;49.398;7.614;2022-10-31T14:15:26;20.30;99.90
50570;DHT22;36525;49.398;7.614;2022-10-31T14:17:55;20.20;99.90
50570;DHT22;36525;49.398;7.614;2022-10-31T14:20:42;20.00;99.90
50570;DHT22;36525;49.398;7.614;2022-10-31T14:28:48;20.10;99.90
50570;DHT22;36525;49.398;7.614;2022-10-31T14:34:26;22.70;99.90
50570;DHT22;36525;49.398;7.614;2022-10-31T14:42:35;23.30;99.90
50570;DHT22;36525;49.398;7.614;2022-10-31T14:48:23;22.30;99.90
50570;DHT22;36525;49.398;7.614;2022-10-31T14:50:57;22.40;99.90
50570;DHT22;36525;49.398;7.614;2022-10-31T14:53:34;22.30;99.90
50570;DHT22;36525;49.398;7.614;2022-10-31T14:56:09;21.80;99.90
50570;DHT22;36525;49.398;7.614;2022-10-31T14:58:42;21.20;99.90
50570;DHT22;36525;49.398;7.614;2022-10-31T15:01:33;20.90;99.90
50570;DHT22;36525;49.398;7.614;2022-10-31T15:04:16;20.80;99.90
50570;DHT22;36525;49.398;7.614;2022-10-31T15:09:30;20.80;99.90
50570;DHT22;36525;49.398;7.614;2022-10-31T15:12:16;21.20;99.90
50570;DHT22;36525;49.398;7.614;2022-10-31T15:14:49;21.40;99.90
50570;DHT22;36525;49.398;7.614;2022-10-31T15:17:16;21.50;99.90
50570;DHT22;36525;49.398;7.614;2022-10-31T15:19:43;21.90;99.90
50570;DHT22;36525;49.398;7.614;2022-10-31T15:22:16;21.90;99.90
50570;DHT22;36525;49.398;7.614;2022-10-31T15:24:44;22.20;99.90
50570;DHT22;36525;49.398;7.614;2022-10-31T15:27:16;22.50;99.90
50570;DHT22;36525;49.398;7.614;2022-10-31T15:29:52;22.20;99.90
50570;DHT22;36525;49.398;7.614;2022-10-31T15:32:26;21.50;99.90
50570;DHT22;36525;49.398;7.614;2022-10-31T15:34:56;21.00;99.90
50570;DHT22;36525;49.398;7.614;2022-10-31T15:37:25;20.60;99.90
50570;DHT22;36525;49.398;7.614;2022-10-31T15:39:52;20.20;99.90
50570;DHT22;36525;49.398;7.614;2022-10-31T15:42:30;20.00;99.90
50570;DHT22;36525;49.398;7.614;2022-10-31T15:47:37;19.20;99.90
50570;DHT22;36525;49.398;7.614;2022-10-31T15:50:18;18.70;99.90
50570;DHT22;36525;49.398;7.614;2022-10-31T15:52:48;18.30;99.90
50570;DHT22;36525;49.398;7.614;2022-10-31T15:55:22;18.10;99.90
50570;DHT22;36525;49.398;7.614;2022-10-31T15:58:01;17.90;99.90
50570;DHT22;36525;49.398;7.614;2022-10-31T16:00:34;17.60;99.90
50570;DHT22;36525;49.398;7.614;2022-10-31T16:05:44;17.00;99.90
50570;DHT22;36525;49.398;7.614;2022-10-31T16:08:31;16.90;99.90
50570;DHT22;36525;49.398;7.614;2022-10-31T16:16:11;16.40;99.90
50570;DHT22;36525;49.398;7.614;2022-10-31T16:19:01;16.20;99.90
50570;DHT22;36525;49.398;7.614;2022-10-31T16:21:37;16.00;99.90
50570;DHT22;36525;49.398;7.614;2022-10-31T16:24:21;15.60;99.90
50570;DHT22;36525;49.398;7.614;2022-10-31T16:27:15;15.40;99.90
50570;DHT22;36525;49.398;7.614;2022-10-31T16:29:46;15.40;99.90
50570;DHT22;36525;49.398;7.614;2022-10-31T16:32:36;15.30;99.90
50570;DHT22;36525;49.398;7.614;2022-10-31T16:35:24;15.20;99.90
50570;DHT22;36525;49.398;7.614;2022-10-31T16:37:54;15.10;99.90
50570;DHT22;36525;49.398;7.614;2022-10-31T16:40:21;15.00;99.90
50570;DHT22;36525;49.398;7.614;2022-10-31T16:42:48;15.10;99.90
50570;DHT22;36525;49.398;7.614;2022-10-31T16:45:24;15.00;99.90
50570;DHT22;36525;49.398;7.614;2022-10-31T16:47:52;14.70;99.90
50570;DHT22;36525;49.398;7.614;2022-10-31T16:52:53;14.70;99.90
50570;DHT22;36525;49.398;7.614;2022-10-31T16:56:27;14.50;99.90
50570;DHT22;36525;49.398;7.614;2022-10-31T16:58:55;14.40;99.90
50570;DHT22;36525;49.398;7.614;2022-10-31T17:01:22;14.40;99.90
50570;DHT22;36525;49.398;7.614;2022-10-31T17:03:49;14.40;99.90
50570;DHT22;36525;49.398;7.614;2022-10-31T17:06:16;14.30;99.90
50570;DHT22;36525;49.398;7.614;2022-10-31T17:08:43;14.20;99.90
50570;DHT22;36525;49.398;7.614;2022-10-31T17:11:16;14.20;99.90
50570;DHT22;36525;49.398;7.614;2022-10-31T17:13:45;14.10;99.90
50570;DHT22;36525;49.398;7.614;2022-10-31T17:16:13;14.10;99.90
50570;DHT22;36525;49.398;7.614;2022-10-31T17:18:43;14.10;99.90
50570;DHT22;36525;49.398;7.614;2022-10-31T17:21:17;14.10;99.90
50570;DHT22;36525;49.398;7.614;2022-10-31T17:23:51;14.00;99.90
50570;DHT22;36525;49.398;7.614;2022-10-31T17:26:18;14.00;99.90
50570;DHT22;36525;49.398;7.614;2022-10-31T17:28:45;14.00;99.90
50570;DHT22;36525;49.398;7.614;2022-10-31T17:31:22;14.00;99.90
50570;DHT22;36525;49.398;7.614;2022-10-31T17:33:50;13.90;99.90
50570;DHT22;36525;49.398;7.614;2022-10-31T17:36:16;13.80;99.90
50570;DHT22;36525;49.398;7.614;2022-10-31T17:38:43;13.80;99.90
50570;DHT22;36525;49.398;7.614;2022-10-31T17:41:10;13.80;99.90
50570;DHT22;36525;49.398;7.614;2022-10-31T17:43:37;13.70;99.90
50570;DHT22;36525;49.398;7.614;2022-10-31T17:46:05;13.60;99.90
50570;DHT22;36525;49.398;7.614;2022-10-31T17:48:34;13.60;99.90
50570;DHT22;36525;49.398;7.614;2022-10-31T17:51:03;13.50;99.90
50570;DHT22;36525;49.398;7.614;2022-10-31T17:53:32;13.50;99.90
50570;DHT22;36525;49.398;7.614;2022-10-31T17:56:02;13.50;99.90
50570;DHT22;36525;49.398;7.614;2022-10-31T17:58:30;13.50;99.90
50570;DHT22;36525;49.398;7.614;2022-10-31T18:00:57;13.50;99.90
50570;DHT22;36525;49.398;7.614;2022-10-31T18:03:26;13.60;99.90
50570;DHT22;36525;49.398;7.614;2022-10-31T18:05:57;13.70;99.90
50570;DHT22;36525;49.398;7.614;2022-10-31T18:08:29;13.70;99.90
50570;DHT22;36525;49.398;7.614;2022-10-31T18:10:58;13.70;99.90
50570;DHT22;36525;49.398;7.614;2022-10-31T18:13:28;13.70;99.90
50570;DHT22;36525;49.398;7.614;2022-10-31T18:15:55;13.60;99.90
50570;DHT22;36525;49.398;7.614;2022-10-31T18:18:21;13.60;99.90
50570;DHT22;36525;49.398;7.614;2022-10-31T18:20:48;13.50;99.90
50570;DHT22;36525;49.398;7.614;2022-10-31T18:23:15;13.40;99.90